sensor_id;sensor_type;location;lat;lon;timestamp;P1;durP1;ratioP1;P2;durP2;ratioP2
61025;SDS011;46911;32.650;-16.902;2024-02-26T00:00:36;7.03;;;2.50;;
61025;SDS011;46911;32.650;-16.902;2024-02-26T00:02:37;6.10;;;1.52;;
61025;SDS011;46911;32.650;-16.902;2024-02-26T00:04:43;5.03;;;1.40;;
61025;SDS011;46911;32.650;-16.902;2024-02-26T00:06:46;3.05;;;1.25;;
61025;SDS011;46911;32.650;-16.902;2024-02-26T00:08:51;6.07;;;1.60;;
61025;SDS011;46911;32.650;-16.902;2024-02-26T00:10:54;3.55;;;1.10;;
61025;SDS011;46911;32.650;-16.902;2024-02-26T00:12:55;10.65;;;1.45;;
61025;SDS011;46911;32.650;-16.902;2024-02-26T00:14:58;4.97;;;1.33;;
61025;SDS011;46911;32.650;-16.902;2024-02-26T00:17:02;6.70;;;1.30;;
61025;SDS011;46911;32.650;-16.902;2024-02-26T00:19:03;10.55;;;1.33;;
61025;SDS011;46911;32.650;-16.902;2024-02-26T00:21:04;9.88;;;1.50;;
61025;SDS011;46911;32.650;-16.902;2024-02-26T00:23:13;4.90;;;1.20;;
61025;SDS011;46911;32.650;-16.902;2024-02-26T00:25:19;7.10;;;1.67;;
61025;SDS011;46911;32.650;-16.902;2024-02-26T00:27:19;3.85;;;1.20;;
61025;SDS011;46911;32.650;-16.902;2024-02-26T00:29:20;9.25;;;2.25;;
61025;SDS011;46911;32.650;-16.902;2024-02-26T00:31:22;3.90;;;1.33;;
61025;SDS011;46911;32.650;-16.902;2024-02-26T00:33:28;6.32;;;1.55;;
61025;SDS011;46911;32.650;-16.902;2024-02-26T00:35:28;5.25;;;1.30;;
61025;SDS011;46911;32.650;-16.902;2024-02-26T00:37:29;13.18;;;1.73;;
61025;SDS011;46911;32.650;-16.902;2024-02-26T00:39:33;4.70;;;1.20;;
61025;SDS011;46911;32.650;-16.902;2024-02-26T00:41:37;4.65;;;1.40;;
61025;SDS011;46911;32.650;-16.902;2024-02-26T00:43:41;6.70;;;1.35;;
61025;SDS011;46911;32.650;-16.902;2024-02-26T00:45:45;6.35;;;1.30;;
61025;SDS011;46911;32.650;-16.902;2024-02-26T00:47:50;5.25;;;1.25;;
61025;SDS011;46911;32.650;-16.902;2024-02-26T00:49:56;6.43;;;1.52;;
61025;SDS011;46911;32.650;-16.902;2024-02-26T00:51:57;12.02;;;1.48;;
61025;SDS011;46911;32.650;-16.902;2024-02-26T00:53:58;6.15;;;1.25;;
61025;SDS011;46911;32.650;-16.902;2024-02-26T00:56:02;7.55;;;1.75;;
61025;SDS011;46911;32.650;-16.902;2024-02-26T00:58:08;8.93;;;1.30;;
61025;SDS011;46911;32.650;-16.902;2024-02-26T01:00:14;8.93;;;1.55;;
61025;SDS011;46911;32.650;-16.902;2024-02-26T01:02:15;5.55;;;1.60;;
61025;SDS011;46911;32.650;-16.902;2024-02-26T01:04:22;5.18;;;1.48;;
61025;SDS011;46911;32.650;-16.902;2024-02-26T01:06:25;7.80;;;2.03;;
61025;SDS011;46911;32.650;-16.902;2024-02-26T01:08:26;7.82;;;1.40;;
61025;SDS011;46911;32.650;-16.902;2024-02-26T01:10:29;3.72;;;1.15;;
61025;SDS011;46911;32.650;-16.902;2024-02-26T01:12:35;4.25;;;1.48;;
61025;SDS011;46911;32.650;-16.902;2024-02-26T01:14:38;9.60;;;1.48;;
61025;SDS011;46911;32.650;-16.902;2024-02-26T01:16:44;4.38;;;1.30;;
61025;SDS011;46911;32.650;-16.902;2024-02-26T01:18:45;6.60;;;1.40;;
61025;SDS011;46911;32.650;-16.902;2024-02-26T01:20:48;5.45;;;1.33;;
61025;SDS011;46911;32.650;-16.902;2024-02-26T01:22:51;5.25;;;0.98;;
61025;SDS011;46911;32.650;-16.902;2024-02-26T01:24:52;6.60;;;1.80;;
61025;SDS011;46911;32.650;-16.902;2024-02-26T01:26:53;6.30;;;1.17;;
61025;SDS011;46911;32.650;-16.902;2024-02-26T01:28:56;9.30;;;1.27;;
61025;SDS011;46911;32.650;-16.902;2024-02-26T01:31:03;5.40;;;1.60;;
61025;SDS011;46911;32.650;-16.902;2024-02-26T01:33:08;6.18;;;1.27;;
61025;SDS011;46911;32.650;-16.902;2024-02-26T01:35:09;7.68;;;1.45;;
61025;SDS011;46911;32.650;-16.902;2024-02-26T01:37:17;6.53;;;1.50;;
61025;SDS011;46911;32.650;-16.902;2024-02-26T01:39:23;3.17;;;1.20;;
61025;SDS011;46911;32.650;-16.902;2024-02-26T01:41:28;4.70;;;1.10;;
61025;SDS011;46911;32.650;-16.902;2024-02-26T01:43:29;3.58;;;1.23;;
61025;SDS011;46911;32.650;-16.902;2024-02-26T01:45:33;4.18;;;1.10;;
61025;SDS011;46911;32.650;-16.902;2024-02-26T01:47:34;4.50;;;1.20;;
61025;SDS011;46911;32.650;-16.902;2024-02-26T01:49:35;8.77;;;1.42;;
61025;SDS011;46911;32.650;-16.902;2024-02-26T01:51:37;6.05;;;1.13;;
61025;SDS011;46911;32.650;-16.902;2024-02-26T01:53:42;8.32;;;1.70;;
61025;SDS011;46911;32.650;-16.902;2024-02-26T01:55:44;7.38;;;1.38;;
61025;SDS011;46911;32.650;-16.902;2024-02-26T01:57:45;11.48;;;1.50;;
61025;SDS011;46911;32.650;-16.902;2024-02-26T01:59:53;9.93;;;1.80;;
61025;SDS011;46911;32.650;-16.902;2024-02-26T02:01:57;9.23;;;1.52;;
61025;SDS011;46911;32.650;-16.902;2024-02-26T02:04:02;8.32;;;1.67;;
61025;SDS011;46911;32.650;-16.902;2024-02-26T02:06:03;5.20;;;1.40;;
61025;SDS011;46911;32.650;-16.902;2024-02-26T02:08:05;7.28;;;1.88;;
61025;SDS011;46911;32.650;-16.902;2024-02-26T02:10:07;4.63;;;1.20;;
61025;SDS011;46911;32.650;-16.902;2024-02-26T02:12:08;6.00;;;1.33;;
61025;SDS011;46911;32.650;-16.902;2024-02-26T02:14:12;5.55;;;1.20;;
61025;SDS011;46911;32.650;-16.902;2024-02-26T02:16:13;3.40;;;1.20;;
61025;SDS011;46911;32.650;-16.902;2024-02-26T02:18:16;6.80;;;1.17;;
61025;SDS011;46911;32.650;-16.902;2024-02-26T02:20:24;4.80;;;1.52;;
61025;SDS011;46911;32.650;-16.902;2024-02-26T02:22:35;5.10;;;1.15;;
61025;SDS011;46911;32.650;-16.902;2024-02-26T02:24:39;3.63;;;1.60;;
61025;SDS011;46911;32.650;-16.902;2024-02-26T02:26:44;2.88;;;1.20;;
61025;SDS011;46911;32.650;-16.902;2024-02-26T02:28:45;6.65;;;1.63;;
61025;SDS011;46911;32.650;-16.902;2024-02-26T02:30:52;4.35;;;1.20;;
61025;SDS011;46911;32.650;-16.902;2024-02-26T02:32:53;6.50;;;1.33;;
61025;SDS011;46911;32.650;-16.902;2024-02-26T02:35:00;3.97;;;1.30;;
61025;SDS011;46911;32.650;-16.902;2024-02-26T02:37:06;3.40;;;1.13;;
61025;SDS011;46911;32.650;-16.902;2024-02-26T02:39:12;4.80;;;1.33;;
61025;SDS011;46911;32.650;-16.902;2024-02-26T02:41:13;6.80;;;1.55;;
61025;SDS011;46911;32.650;-16.902;2024-02-26T02:43:18;8.40;;;1.77;;
61025;SDS011;46911;32.650;-16.902;2024-02-26T02:45:24;3.53;;;1.10;;
61025;SDS011;46911;32.650;-16.902;2024-02-26T02:47:27;10.65;;;1.48;;
61025;SDS011;46911;32.650;-16.902;2024-02-26T02:49:33;4.07;;;0.98;;
61025;SDS011;46911;32.650;-16.902;2024-02-26T02:51:37;3.47;;;0.95;;
61025;SDS011;46911;32.650;-16.902;2024-02-26T02:53:38;4.38;;;1.33;;
61025;SDS011;46911;32.650;-16.902;2024-02-26T02:55:42;7.47;;;1.50;;
61025;SDS011;46911;32.650;-16.902;2024-02-26T02:57:47;5.03;;;1.10;;
61025;SDS011;46911;32.650;-16.902;2024-02-26T02:59:48;5.53;;;1.02;;
61025;SDS011;46911;32.650;-16.902;2024-02-26T03:01:55;4.20;;;1.23;;
61025;SDS011;46911;32.650;-16.902;2024-02-26T03:03:56;3.42;;;1.10;;
61025;SDS011;46911;32.650;-16.902;2024-02-26T03:06:03;12.23;;;1.70;;
61025;SDS011;46911;32.650;-16.902;2024-02-26T03:08:06;4.43;;;1.00;;
61025;SDS011;46911;32.650;-16.902;2024-02-26T03:10:07;4.05;;;0.93;;
61025;SDS011;46911;32.650;-16.902;2024-02-26T03:12:10;4.90;;;1.15;;
61025;SDS011;46911;32.650;-16.902;2024-02-26T03:14:13;7.38;;;1.25;;
61025;SDS011;46911;32.650;-16.902;2024-02-26T03:16:17;2.88;;;0.88;;
61025;SDS011;46911;32.650;-16.902;2024-02-26T03:18:18;8.45;;;1.02;;
61025;SDS011;46911;32.650;-16.902;2024-02-26T03:20:21;4.10;;;0.80;;
61025;SDS011;46911;32.650;-16.902;2024-02-26T03:22:22;4.65;;;1.33;;
61025;SDS011;46911;32.650;-16.902;2024-02-26T03:24:31;5.93;;;1.17;;
61025;SDS011;46911;32.650;-16.902;2024-02-26T03:26:34;8.00;;;1.33;;
61025;SDS011;46911;32.650;-16.902;2024-02-26T03:28:40;1.75;;;0.95;;
61025;SDS011;46911;32.650;-16.902;2024-02-26T03:30:41;2.83;;;1.08;;
61025;SDS011;46911;32.650;-16.902;2024-02-26T03:32:42;7.65;;;1.30;;
61025;SDS011;46911;32.650;-16.902;2024-02-26T03:34:43;3.38;;;1.00;;
61025;SDS011;46911;32.650;-16.902;2024-02-26T03:36:46;3.00;;;1.10;;
61025;SDS011;46911;32.650;-16.902;2024-02-26T03:38:49;4.03;;;1.20;;
61025;SDS011;46911;32.650;-16.902;2024-02-26T03:40:50;3.28;;;1.10;;
61025;SDS011;46911;32.650;-16.902;2024-02-26T03:42:56;3.22;;;1.02;;
61025;SDS011;46911;32.650;-16.902;2024-02-26T03:45:02;6.53;;;1.10;;
61025;SDS011;46911;32.650;-16.902;2024-02-26T03:47:06;4.20;;;1.08;;
61025;SDS011;46911;32.650;-16.902;2024-02-26T03:49:07;3.85;;;1.23;;
61025;SDS011;46911;32.650;-16.902;2024-02-26T03:51:10;9.60;;;1.15;;
61025;SDS011;46911;32.650;-16.902;2024-02-26T03:53:11;4.07;;;0.98;;
61025;SDS011;46911;32.650;-16.902;2024-02-26T03:55:13;3.20;;;1.02;;
61025;SDS011;46911;32.650;-16.902;2024-02-26T03:57:21;4.80;;;1.20;;
61025;SDS011;46911;32.650;-16.902;2024-02-26T03:59:22;7.78;;;1.05;;
61025;SDS011;46911;32.650;-16.902;2024-02-26T04:01:26;6.78;;;1.08;;
61025;SDS011;46911;32.650;-16.902;2024-02-26T04:03:27;10.38;;;1.13;;
61025;SDS011;46911;32.650;-16.902;2024-02-26T04:05:31;2.90;;;1.00;;
61025;SDS011;46911;32.650;-16.902;2024-02-26T04:07:37;5.35;;;1.05;;
61025;SDS011;46911;32.650;-16.902;2024-02-26T04:09:40;8.43;;;1.40;;
61025;SDS011;46911;32.650;-16.902;2024-02-26T04:11:49;5.83;;;1.03;;
61025;SDS011;46911;32.650;-16.902;2024-02-26T04:13:50;8.18;;;1.40;;
61025;SDS011;46911;32.650;-16.902;2024-02-26T04:15:53;5.45;;;1.42;;
61025;SDS011;46911;32.650;-16.902;2024-02-26T04:17:54;7.18;;;1.33;;
61025;SDS011;46911;32.650;-16.902;2024-02-26T04:19:55;3.75;;;1.00;;
61025;SDS011;46911;32.650;-16.902;2024-02-26T04:21:58;2.35;;;0.90;;
61025;SDS011;46911;32.650;-16.902;2024-02-26T04:24:02;2.05;;;0.80;;
61025;SDS011;46911;32.650;-16.902;2024-02-26T04:26:04;2.03;;;0.90;;
61025;SDS011;46911;32.650;-16.902;2024-02-26T04:28:05;8.63;;;1.38;;
61025;SDS011;46911;32.650;-16.902;2024-02-26T04:30:07;8.18;;;1.45;;
61025;SDS011;46911;32.650;-16.902;2024-02-26T04:32:08;8.10;;;1.50;;
61025;SDS011;46911;32.650;-16.902;2024-02-26T04:34:09;5.05;;;1.20;;
61025;SDS011;46911;32.650;-16.902;2024-02-26T04:36:13;5.82;;;1.40;;
61025;SDS011;46911;32.650;-16.902;2024-02-26T04:38:17;4.25;;;1.25;;
61025;SDS011;46911;32.650;-16.902;2024-02-26T04:40:20;6.80;;;1.10;;
61025;SDS011;46911;32.650;-16.902;2024-02-26T04:42:24;9.73;;;1.27;;
61025;SDS011;46911;32.650;-16.902;2024-02-26T04:44:29;8.45;;;1.90;;
61025;SDS011;46911;32.650;-16.902;2024-02-26T04:46:33;11.57;;;1.55;;
61025;SDS011;46911;32.650;-16.902;2024-02-26T04:48:38;5.10;;;1.23;;
61025;SDS011;46911;32.650;-16.902;2024-02-26T04:50:41;6.35;;;1.30;;
61025;SDS011;46911;32.650;-16.902;2024-02-26T04:52:50;1.80;;;0.85;;
61025;SDS011;46911;32.650;-16.902;2024-02-26T04:54:53;5.68;;;1.52;;
61025;SDS011;46911;32.650;-16.902;2024-02-26T04:56:59;4.82;;;1.40;;
61025;SDS011;46911;32.650;-16.902;2024-02-26T04:59:02;3.38;;;0.98;;
61025;SDS011;46911;32.650;-16.902;2024-02-26T05:01:03;2.58;;;1.00;;
61025;SDS011;46911;32.650;-16.902;2024-02-26T05:03:09;5.07;;;2.22;;
61025;SDS011;46911;32.650;-16.902;2024-02-26T05:05:16;7.15;;;1.10;;
61025;SDS011;46911;32.650;-16.902;2024-02-26T05:07:18;15.00;;;1.20;;
61025;SDS011;46911;32.650;-16.902;2024-02-26T05:09:19;5.18;;;1.15;;
61025;SDS011;46911;32.650;-16.902;2024-02-26T05:11:22;7.20;;;1.30;;
61025;SDS011;46911;32.650;-16.902;2024-02-26T05:13:23;3.80;;;1.05;;
61025;SDS011;46911;32.650;-16.902;2024-02-26T05:15:27;4.97;;;1.25;;
61025;SDS011;46911;32.650;-16.902;2024-02-26T05:17:30;5.43;;;1.30;;
61025;SDS011;46911;32.650;-16.902;2024-02-26T05:19:31;7.72;;;1.30;;
61025;SDS011;46911;32.650;-16.902;2024-02-26T05:21:36;10.05;;;1.45;;
61025;SDS011;46911;32.650;-16.902;2024-02-26T05:23:40;11.60;;;1.45;;
61025;SDS011;46911;32.650;-16.902;2024-02-26T05:25:46;3.97;;;1.30;;
61025;SDS011;46911;32.650;-16.902;2024-02-26T05:27:51;5.15;;;1.35;;
61025;SDS011;46911;32.650;-16.902;2024-02-26T05:29:58;9.20;;;1.48;;
61025;SDS011;46911;32.650;-16.902;2024-02-26T05:32:04;4.72;;;1.08;;
61025;SDS011;46911;32.650;-16.902;2024-02-26T05:34:10;10.50;;;1.67;;
61025;SDS011;46911;32.650;-16.902;2024-02-26T05:36:19;5.85;;;1.15;;
61025;SDS011;46911;32.650;-16.902;2024-02-26T05:38:22;5.90;;;1.10;;
61025;SDS011;46911;32.650;-16.902;2024-02-26T05:40:23;4.82;;;1.05;;
61025;SDS011;46911;32.650;-16.902;2024-02-26T05:42:26;8.52;;;1.13;;
61025;SDS011;46911;32.650;-16.902;2024-02-26T05:44:29;3.45;;;1.02;;
61025;SDS011;46911;32.650;-16.902;2024-02-26T05:46:35;7.75;;;1.20;;
61025;SDS011;46911;32.650;-16.902;2024-02-26T05:48:38;8.10;;;1.20;;
61025;SDS011;46911;32.650;-16.902;2024-02-26T05:50:42;5.68;;;1.30;;
61025;SDS011;46911;32.650;-16.902;2024-02-26T05:52:46;6.32;;;1.30;;
61025;SDS011;46911;32.650;-16.902;2024-02-26T05:54:47;10.15;;;1.42;;
61025;SDS011;46911;32.650;-16.902;2024-02-26T05:56:47;6.15;;;1.30;;
61025;SDS011;46911;32.650;-16.902;2024-02-26T05:58:53;7.55;;;1.00;;
61025;SDS011;46911;32.650;-16.902;2024-02-26T06:00:56;6.82;;;1.35;;
61025;SDS011;46911;32.650;-16.902;2024-02-26T06:03:00;8.57;;;1.40;;
61025;SDS011;46911;32.650;-16.902;2024-02-26T06:05:02;6.72;;;1.35;;
61025;SDS011;46911;32.650;-16.902;2024-02-26T06:07:03;7.20;;;1.90;;
61025;SDS011;46911;32.650;-16.902;2024-02-26T06:09:07;6.25;;;1.25;;
61025;SDS011;46911;32.650;-16.902;2024-02-26T06:11:08;7.82;;;1.23;;
61025;SDS011;46911;32.650;-16.902;2024-02-26T06:13:09;2.95;;;0.93;;
61025;SDS011;46911;32.650;-16.902;2024-02-26T06:15:10;8.23;;;1.17;;
61025;SDS011;46911;32.650;-16.902;2024-02-26T06:17:13;5.85;;;1.33;;
61025;SDS011;46911;32.650;-16.902;2024-02-26T06:19:14;8.30;;;1.10;;
61025;SDS011;46911;32.650;-16.902;2024-02-26T06:21:17;5.43;;;1.38;;
61025;SDS011;46911;32.650;-16.902;2024-02-26T06:23:20;7.70;;;1.42;;
61025;SDS011;46911;32.650;-16.902;2024-02-26T06:25:21;8.52;;;1.35;;
61025;SDS011;46911;32.650;-16.902;2024-02-26T06:27:28;4.38;;;1.13;;
61025;SDS011;46911;32.650;-16.902;2024-02-26T06:29:31;7.53;;;1.40;;
61025;SDS011;46911;32.650;-16.902;2024-02-26T06:31:32;11.68;;;1.33;;
61025;SDS011;46911;32.650;-16.902;2024-02-26T06:33:33;8.23;;;1.55;;
61025;SDS011;46911;32.650;-16.902;2024-02-26T06:35:36;3.33;;;1.38;;
61025;SDS011;46911;32.650;-16.902;2024-02-26T06:37:41;5.15;;;1.60;;
61025;SDS011;46911;32.650;-16.902;2024-02-26T06:39:46;9.85;;;1.67;;
61025;SDS011;46911;32.650;-16.902;2024-02-26T06:41:49;8.25;;;2.17;;
61025;SDS011;46911;32.650;-16.902;2024-02-26T06:43:50;8.38;;;1.67;;
61025;SDS011;46911;32.650;-16.902;2024-02-26T06:45:53;9.98;;;1.50;;
61025;SDS011;46911;32.650;-16.902;2024-02-26T06:47:57;8.30;;;1.63;;
61025;SDS011;46911;32.650;-16.902;2024-02-26T06:49:58;8.48;;;2.03;;
61025;SDS011;46911;32.650;-16.902;2024-02-26T06:52:05;7.50;;;1.48;;
61025;SDS011;46911;32.650;-16.902;2024-02-26T06:54:11;6.55;;;1.40;;
61025;SDS011;46911;32.650;-16.902;2024-02-26T06:56:12;8.07;;;1.48;;
61025;SDS011;46911;32.650;-16.902;2024-02-26T06:58:12;7.75;;;1.55;;
61025;SDS011;46911;32.650;-16.902;2024-02-26T07:00:17;9.32;;;1.50;;
61025;SDS011;46911;32.650;-16.902;2024-02-26T07:02:18;7.00;;;1.50;;
61025;SDS011;46911;32.650;-16.902;2024-02-26T07:04:19;8.65;;;1.63;;
61025;SDS011;46911;32.650;-16.902;2024-02-26T07:06:25;5.55;;;1.60;;
61025;SDS011;46911;32.650;-16.902;2024-02-26T07:08:32;9.45;;;1.60;;
61025;SDS011;46911;32.650;-16.902;2024-02-26T07:10:33;7.03;;;1.80;;
61025;SDS011;46911;32.650;-16.902;2024-02-26T07:12:39;10.13;;;1.10;;
61025;SDS011;46911;32.650;-16.902;2024-02-26T07:14:40;13.38;;;1.80;;
61025;SDS011;46911;32.650;-16.902;2024-02-26T07:16:41;12.05;;;2.03;;
61025;SDS011;46911;32.650;-16.902;2024-02-26T07:18:42;3.13;;;1.35;;
61025;SDS011;46911;32.650;-16.902;2024-02-26T07:20:46;12.20;;;1.77;;
61025;SDS011;46911;32.650;-16.902;2024-02-26T07:22:51;3.47;;;1.48;;
61025;SDS011;46911;32.650;-16.902;2024-02-26T07:24:54;9.38;;;2.03;;
61025;SDS011;46911;32.650;-16.902;2024-02-26T07:26:57;10.18;;;1.77;;
61025;SDS011;46911;32.650;-16.902;2024-02-26T07:29:02;6.88;;;1.55;;
61025;SDS011;46911;32.650;-16.902;2024-02-26T07:31:06;4.82;;;1.52;;
61025;SDS011;46911;32.650;-16.902;2024-02-26T07:33:07;9.52;;;1.65;;
61025;SDS011;46911;32.650;-16.902;2024-02-26T07:35:11;9.60;;;2.15;;
61025;SDS011;46911;32.650;-16.902;2024-02-26T07:37:18;7.43;;;2.25;;
61025;SDS011;46911;32.650;-16.902;2024-02-26T07:39:18;7.32;;;2.00;;
61025;SDS011;46911;32.650;-16.902;2024-02-26T07:41:20;18.55;;;2.80;;
61025;SDS011;46911;32.650;-16.902;2024-02-26T07:43:21;16.88;;;2.20;;
61025;SDS011;46911;32.650;-16.902;2024-02-26T07:45:22;12.00;;;2.42;;
61025;SDS011;46911;32.650;-16.902;2024-02-26T07:47:28;8.88;;;2.75;;
61025;SDS011;46911;32.650;-16.902;2024-02-26T07:49:30;10.77;;;2.65;;
61025;SDS011;46911;32.650;-16.902;2024-02-26T07:51:31;10.60;;;2.53;;
61025;SDS011;46911;32.650;-16.902;2024-02-26T07:53:34;7.70;;;2.38;;
61025;SDS011;46911;32.650;-16.902;2024-02-26T07:55:38;17.00;;;4.43;;
61025;SDS011;46911;32.650;-16.902;2024-02-26T07:57:42;17.45;;;3.22;;
61025;SDS011;46911;32.650;-16.902;2024-02-26T07:59:45;15.30;;;2.95;;
61025;SDS011;46911;32.650;-16.902;2024-02-26T08:01:52;9.68;;;2.33;;
61025;SDS011;46911;32.650;-16.902;2024-02-26T08:03:53;14.93;;;3.30;;
61025;SDS011;46911;32.650;-16.902;2024-02-26T08:05:54;7.45;;;2.28;;
61025;SDS011;46911;32.650;-16.902;2024-02-26T08:07:58;17.05;;;2.78;;
61025;SDS011;46911;32.650;-16.902;2024-02-26T08:10:06;36.70;;;2.50;;
61025;SDS011;46911;32.650;-16.902;2024-02-26T08:12:14;9.20;;;1.98;;
61025;SDS011;46911;32.650;-16.902;2024-02-26T08:14:15;13.93;;;2.88;;
61025;SDS011;46911;32.650;-16.902;2024-02-26T08:16:18;14.55;;;2.70;;
61025;SDS011;46911;32.650;-16.902;2024-02-26T08:18:19;22.50;;;2.50;;
61025;SDS011;46911;32.650;-16.902;2024-02-26T08:20:22;16.13;;;2.65;;
61025;SDS011;46911;32.650;-16.902;2024-02-26T08:22:26;13.00;;;2.60;;
61025;SDS011;46911;32.650;-16.902;2024-02-26T08:24:26;11.55;;;3.00;;
61025;SDS011;46911;32.650;-16.902;2024-02-26T08:26:30;7.03;;;2.10;;
61025;SDS011;46911;32.650;-16.902;2024-02-26T08:28:33;5.50;;;1.77;;
61025;SDS011;46911;32.650;-16.902;2024-02-26T08:30:36;10.88;;;2.25;;
61025;SDS011;46911;32.650;-16.902;2024-02-26T08:32:37;11.52;;;2.35;;
61025;SDS011;46911;32.650;-16.902;2024-02-26T08:34:42;8.85;;;1.83;;
61025;SDS011;46911;32.650;-16.902;2024-02-26T08:36:46;14.10;;;2.67;;
61025;SDS011;46911;32.650;-16.902;2024-02-26T08:38:47;14.20;;;1.70;;
61025;SDS011;46911;32.650;-16.902;2024-02-26T08:40:52;6.85;;;1.60;;
61025;SDS011;46911;32.650;-16.902;2024-02-26T08:42:55;11.73;;;2.55;;
61025;SDS011;46911;32.650;-16.902;2024-02-26T08:44:59;4.95;;;1.27;;
61025;SDS011;46911;32.650;-16.902;2024-02-26T08:47:01;12.00;;;2.10;;
61025;SDS011;46911;32.650;-16.902;2024-02-26T08:49:02;10.10;;;2.10;;
61025;SDS011;46911;32.650;-16.902;2024-02-26T08:51:07;8.38;;;1.95;;
61025;SDS011;46911;32.650;-16.902;2024-02-26T08:53:08;12.57;;;2.00;;
61025;SDS011;46911;32.650;-16.902;2024-02-26T08:55:11;6.82;;;1.90;;
61025;SDS011;46911;32.650;-16.902;2024-02-26T08:57:13;9.68;;;1.88;;
61025;SDS011;46911;32.650;-16.902;2024-02-26T08:59:14;7.22;;;1.50;;
61025;SDS011;46911;32.650;-16.902;2024-02-26T09:01:16;6.35;;;1.50;;
61025;SDS011;46911;32.650;-16.902;2024-02-26T09:03:19;5.78;;;1.27;;
61025;SDS011;46911;32.650;-16.902;2024-02-26T09:05:26;8.50;;;1.73;;
61025;SDS011;46911;32.650;-16.902;2024-02-26T09:07:29;13.65;;;1.13;;
61025;SDS011;46911;32.650;-16.902;2024-02-26T09:09:30;10.02;;;1.67;;
61025;SDS011;46911;32.650;-16.902;2024-02-26T09:11:34;14.38;;;1.80;;
61025;SDS011;46911;32.650;-16.902;2024-02-26T09:13:34;8.70;;;1.80;;
61025;SDS011;46911;32.650;-16.902;2024-02-26T09:15:38;4.55;;;1.58;;
61025;SDS011;46911;32.650;-16.902;2024-02-26T09:17:38;7.57;;;1.55;;
61025;SDS011;46911;32.650;-16.902;2024-02-26T09:19:39;7.60;;;1.08;;
61025;SDS011;46911;32.650;-16.902;2024-02-26T09:21:49;8.60;;;1.52;;
61025;SDS011;46911;32.650;-16.902;2024-02-26T09:23:54;9.25;;;1.75;;
61025;SDS011;46911;32.650;-16.902;2024-02-26T09:25:55;4.43;;;0.98;;
61025;SDS011;46911;32.650;-16.902;2024-02-26T09:27:58;7.22;;;1.05;;
61025;SDS011;46911;32.650;-16.902;2024-02-26T09:29:59;8.55;;;1.30;;
61025;SDS011;46911;32.650;-16.902;2024-02-26T09:32:00;6.20;;;1.15;;
61025;SDS011;46911;32.650;-16.902;2024-02-26T09:34:01;9.23;;;1.63;;
61025;SDS011;46911;32.650;-16.902;2024-02-26T09:36:03;6.72;;;1.42;;
61025;SDS011;46911;32.650;-16.902;2024-02-26T09:38:08;5.25;;;1.45;;
61025;SDS011;46911;32.650;-16.902;2024-02-26T09:40:12;5.38;;;0.93;;
61025;SDS011;46911;32.650;-16.902;2024-02-26T09:42:13;6.40;;;1.20;;
61025;SDS011;46911;32.650;-16.902;2024-02-26T09:44:15;7.50;;;1.38;;
61025;SDS011;46911;32.650;-16.902;2024-02-26T09:46:23;4.97;;;1.20;;
61025;SDS011;46911;32.650;-16.902;2024-02-26T09:48:25;4.35;;;1.30;;
61025;SDS011;46911;32.650;-16.902;2024-02-26T09:50:31;9.65;;;1.40;;
61025;SDS011;46911;32.650;-16.902;2024-02-26T09:52:36;3.90;;;1.17;;
61025;SDS011;46911;32.650;-16.902;2024-02-26T09:54:42;12.98;;;1.35;;
61025;SDS011;46911;32.650;-16.902;2024-02-26T09:56:47;3.53;;;0.95;;
61025;SDS011;46911;32.650;-16.902;2024-02-26T09:58:50;10.15;;;2.05;;
61025;SDS011;46911;32.650;-16.902;2024-02-26T10:00:56;4.68;;;1.05;;
61025;SDS011;46911;32.650;-16.902;2024-02-26T10:03:03;10.00;;;1.33;;
61025;SDS011;46911;32.650;-16.902;2024-02-26T10:05:10;8.30;;;1.10;;
61025;SDS011;46911;32.650;-16.902;2024-02-26T10:07:14;5.03;;;1.30;;
61025;SDS011;46911;32.650;-16.902;2024-02-26T10:09:16;12.68;;;1.65;;
61025;SDS011;46911;32.650;-16.902;2024-02-26T10:11:20;17.00;;;1.85;;
61025;SDS011;46911;32.650;-16.902;2024-02-26T10:13:22;12.20;;;1.27;;
61025;SDS011;46911;32.650;-16.902;2024-02-26T10:15:23;8.35;;;1.52;;
61025;SDS011;46911;32.650;-16.902;2024-02-26T10:17:24;7.65;;;1.33;;
61025;SDS011;46911;32.650;-16.902;2024-02-26T10:19:28;9.00;;;1.40;;
61025;SDS011;46911;32.650;-16.902;2024-02-26T10:21:36;8.13;;;1.58;;
61025;SDS011;46911;32.650;-16.902;2024-02-26T10:23:42;4.05;;;0.93;;
61025;SDS011;46911;32.650;-16.902;2024-02-26T10:25:52;5.95;;;1.25;;
61025;SDS011;46911;32.650;-16.902;2024-02-26T10:27:55;3.65;;;1.00;;
61025;SDS011;46911;32.650;-16.902;2024-02-26T10:30:03;7.03;;;1.20;;
61025;SDS011;46911;32.650;-16.902;2024-02-26T10:32:08;5.78;;;1.20;;
61025;SDS011;46911;32.650;-16.902;2024-02-26T10:34:12;7.65;;;1.20;;
61025;SDS011;46911;32.650;-16.902;2024-02-26T10:36:13;5.95;;;1.10;;
61025;SDS011;46911;32.650;-16.902;2024-02-26T10:38:17;6.63;;;1.48;;
61025;SDS011;46911;32.650;-16.902;2024-02-26T10:40:20;6.10;;;1.33;;
61025;SDS011;46911;32.650;-16.902;2024-02-26T10:42:21;6.43;;;1.25;;
61025;SDS011;46911;32.650;-16.902;2024-02-26T10:44:25;6.03;;;1.92;;
61025;SDS011;46911;32.650;-16.902;2024-02-26T10:46:27;6.65;;;1.15;;
61025;SDS011;46911;32.650;-16.902;2024-02-26T10:48:28;6.57;;;1.02;;
61025;SDS011;46911;32.650;-16.902;2024-02-26T10:50:32;5.43;;;1.55;;
61025;SDS011;46911;32.650;-16.902;2024-02-26T10:52:36;14.77;;;1.42;;
61025;SDS011;46911;32.650;-16.902;2024-02-26T10:54:37;6.65;;;1.23;;
61025;SDS011;46911;32.650;-16.902;2024-02-26T10:56:42;3.83;;;1.10;;
61025;SDS011;46911;32.650;-16.902;2024-02-26T10:58:46;7.07;;;1.10;;
61025;SDS011;46911;32.650;-16.902;2024-02-26T11:00:50;4.38;;;1.20;;
61025;SDS011;46911;32.650;-16.902;2024-02-26T11:02:52;9.35;;;2.08;;
61025;SDS011;46911;32.650;-16.902;2024-02-26T11:04:56;6.78;;;1.60;;
61025;SDS011;46911;32.650;-16.902;2024-02-26T11:07:01;4.97;;;1.40;;
61025;SDS011;46911;32.650;-16.902;2024-02-26T11:09:05;7.75;;;1.30;;
61025;SDS011;46911;32.650;-16.902;2024-02-26T11:11:08;6.45;;;1.10;;
61025;SDS011;46911;32.650;-16.902;2024-02-26T11:13:12;4.13;;;0.90;;
61025;SDS011;46911;32.650;-16.902;2024-02-26T11:15:18;4.60;;;1.10;;
61025;SDS011;46911;32.650;-16.902;2024-02-26T11:17:21;5.72;;;1.13;;
61025;SDS011;46911;32.650;-16.902;2024-02-26T11:19:26;7.20;;;0.88;;
61025;SDS011;46911;32.650;-16.902;2024-02-26T11:21:30;3.00;;;0.88;;
61025;SDS011;46911;32.650;-16.902;2024-02-26T11:23:38;3.83;;;0.93;;
61025;SDS011;46911;32.650;-16.902;2024-02-26T11:25:43;4.30;;;1.30;;
61025;SDS011;46911;32.650;-16.902;2024-02-26T11:27:52;5.55;;;0.98;;
61025;SDS011;46911;32.650;-16.902;2024-02-26T11:29:57;3.15;;;1.27;;
61025;SDS011;46911;32.650;-16.902;2024-02-26T11:32:14;5.35;;;1.02;;
61025;SDS011;46911;32.650;-16.902;2024-02-26T11:34:20;6.45;;;1.00;;
61025;SDS011;46911;32.650;-16.902;2024-02-26T11:36:24;6.05;;;1.20;;
61025;SDS011;46911;32.650;-16.902;2024-02-26T11:38:30;9.00;;;1.83;;
61025;SDS011;46911;32.650;-16.902;2024-02-26T11:40:41;5.20;;;0.90;;
61025;SDS011;46911;32.650;-16.902;2024-02-26T11:42:45;5.00;;;1.05;;
61025;SDS011;46911;32.650;-16.902;2024-02-26T11:44:48;6.50;;;1.17;;
61025;SDS011;46911;32.650;-16.902;2024-02-26T11:46:51;4.88;;;1.13;;
61025;SDS011;46911;32.650;-16.902;2024-02-26T11:49:02;4.15;;;1.02;;
61025;SDS011;46911;32.650;-16.902;2024-02-26T11:51:27;3.13;;;0.93;;
61025;SDS011;46911;32.650;-16.902;2024-02-26T11:53:32;9.75;;;0.98;;
61025;SDS011;46911;32.650;-16.902;2024-02-26T11:55:35;4.50;;;1.10;;
61025;SDS011;46911;32.650;-16.902;2024-02-26T11:57:39;4.00;;;1.20;;
61025;SDS011;46911;32.650;-16.902;2024-02-26T11:59:40;4.63;;;1.00;;